Main page
METAR-TAF:

METAR-TAF

Airports :

Bric della Croce

Turin, Italy

latitude: 45-02N, longitude: 007-44E, elevation: 709 m

Current weather observation

The report was made 1 hour and 24 minutes ago, at 17:55 UTC
Wind 3 kt from variable directions
Temperature 15°C
Humidity 88%
Pressure 1016 hPa

METAR: LIMK 141755Z AUTO VRB03KT //// 15/13 Q1016

Time: 21:19 (19:19 UTC)


TAF: missing

Weather observations and forecasts of more than 4000 airports (METAR and TAF reports).

The available stations are represented by yellow and red dots on the map.

Hover mouse over dot to see the name of the station.

Then click to see weather observations and forecasts.

To change the map : click on the green buttons with a black cross to zoom in, on the green button with a dash to zoom out, or on the green arrows for adjacent maps.


METAR-TAF: